sensor_id;sensor_type;location;lat;lon;timestamp;P1;durP1;ratioP1;P2;durP2;ratioP2
40533;SDS011;26233;51.894;10.192;2022-08-19T00:01:16;8.07;;;7.43;;
40533;SDS011;26233;51.894;10.192;2022-08-19T00:03:43;7.43;;;6.93;;
40533;SDS011;26233;51.894;10.192;2022-08-19T00:06:11;7.32;;;6.78;;
40533;SDS011;26233;51.894;10.192;2022-08-19T00:08:38;7.85;;;7.25;;
40533;SDS011;26233;51.894;10.192;2022-08-19T00:11:06;7.70;;;7.05;;
40533;SDS011;26233;51.894;10.192;2022-08-19T00:13:34;8.55;;;7.85;;
40533;SDS011;26233;51.894;10.192;2022-08-19T00:16:02;7.82;;;7.22;;
40533;SDS011;26233;51.894;10.192;2022-08-19T00:18:32;7.00;;;6.50;;
40533;SDS011;26233;51.894;10.192;2022-08-19T00:21:00;7.72;;;7.13;;
40533;SDS011;26233;51.894;10.192;2022-08-19T00:23:28;7.20;;;6.60;;
40533;SDS011;26233;51.894;10.192;2022-08-19T00:25:55;7.28;;;6.68;;
40533;SDS011;26233;51.894;10.192;2022-08-19T00:28:22;7.18;;;6.57;;
40533;SDS011;26233;51.894;10.192;2022-08-19T00:30:49;7.10;;;6.60;;
40533;SDS011;26233;51.894;10.192;2022-08-19T00:33:18;7.68;;;6.95;;
40533;SDS011;26233;51.894;10.192;2022-08-19T00:35:47;6.82;;;6.32;;
40533;SDS011;26233;51.894;10.192;2022-08-19T00:38:14;7.07;;;6.32;;
40533;SDS011;26233;51.894;10.192;2022-08-19T00:40:42;7.00;;;6.40;;
40533;SDS011;26233;51.894;10.192;2022-08-19T00:43:11;6.57;;;5.97;;
40533;SDS011;26233;51.894;10.192;2022-08-19T00:45:44;6.57;;;6.07;;
40533;SDS011;26233;51.894;10.192;2022-08-19T00:48:12;6.45;;;5.95;;
40533;SDS011;26233;51.894;10.192;2022-08-19T00:50:41;6.40;;;5.97;;
40533;SDS011;26233;51.894;10.192;2022-08-19T00:53:11;6.22;;;5.70;;
40533;SDS011;26233;51.894;10.192;2022-08-19T00:55:42;6.32;;;5.72;;
40533;SDS011;26233;51.894;10.192;2022-08-19T00:58:15;6.35;;;5.72;;
40533;SDS011;26233;51.894;10.192;2022-08-19T01:00:46;6.22;;;5.65;;
40533;SDS011;26233;51.894;10.192;2022-08-19T01:03:15;6.35;;;5.75;;
40533;SDS011;26233;51.894;10.192;2022-08-19T01:05:45;6.57;;;5.97;;
40533;SDS011;26233;51.894;10.192;2022-08-19T01:08:17;5.90;;;5.38;;
40533;SDS011;26233;51.894;10.192;2022-08-19T01:10:46;6.30;;;5.80;;
40533;SDS011;26233;51.894;10.192;2022-08-19T01:13:17;6.47;;;5.88;;
40533;SDS011;26233;51.894;10.192;2022-08-19T01:15:49;5.70;;;5.30;;
40533;SDS011;26233;51.894;10.192;2022-08-19T01:18:19;6.15;;;5.65;;
40533;SDS011;26233;51.894;10.192;2022-08-19T01:20:48;6.35;;;5.82;;
40533;SDS011;26233;51.894;10.192;2022-08-19T01:23:19;5.88;;;5.47;;
40533;SDS011;26233;51.894;10.192;2022-08-19T01:25:47;6.30;;;5.70;;
40533;SDS011;26233;51.894;10.192;2022-08-19T01:28:18;6.47;;;6.03;;
40533;SDS011;26233;51.894;10.192;2022-08-19T01:30:47;6.30;;;5.80;;
40533;SDS011;26233;51.894;10.192;2022-08-19T01:33:15;6.13;;;5.60;;
40533;SDS011;26233;51.894;10.192;2022-08-19T01:35:42;6.50;;;5.93;;
40533;SDS011;26233;51.894;10.192;2022-08-19T01:38:17;7.03;;;6.38;;
40533;SDS011;26233;51.894;10.192;2022-08-19T01:40:50;7.20;;;6.45;;
40533;SDS011;26233;51.894;10.192;2022-08-19T01:43:17;7.00;;;6.40;;
40533;SDS011;26233;51.894;10.192;2022-08-19T01:45:45;6.93;;;6.35;;
40533;SDS011;26233;51.894;10.192;2022-08-19T01:48:13;6.32;;;5.80;;
40533;SDS011;26233;51.894;10.192;2022-08-19T01:50:40;7.30;;;6.70;;
40533;SDS011;26233;51.894;10.192;2022-08-19T01:53:09;6.65;;;6.15;;
40533;SDS011;26233;51.894;10.192;2022-08-19T01:55:40;6.80;;;6.20;;
40533;SDS011;26233;51.894;10.192;2022-08-19T01:58:11;6.78;;;6.28;;
40533;SDS011;26233;51.894;10.192;2022-08-19T02:00:42;6.53;;;6.03;;
40533;SDS011;26233;51.894;10.192;2022-08-19T02:03:10;7.18;;;6.57;;
40533;SDS011;26233;51.894;10.192;2022-08-19T02:05:38;6.93;;;6.43;;
40533;SDS011;26233;51.894;10.192;2022-08-19T02:08:06;6.93;;;6.30;;
40533;SDS011;26233;51.894;10.192;2022-08-19T02:10:39;7.10;;;6.57;;
40533;SDS011;26233;51.894;10.192;2022-08-19T02:13:09;7.50;;;6.80;;
40533;SDS011;26233;51.894;10.192;2022-08-19T02:15:37;7.70;;;7.03;;
40533;SDS011;26233;51.894;10.192;2022-08-19T02:18:05;7.43;;;6.82;;
40533;SDS011;26233;51.894;10.192;2022-08-19T02:20:33;8.27;;;7.47;;
40533;SDS011;26233;51.894;10.192;2022-08-19T02:23:01;7.53;;;6.90;;
40533;SDS011;26233;51.894;10.192;2022-08-19T02:25:29;7.82;;;7.13;;
40533;SDS011;26233;51.894;10.192;2022-08-19T02:27:57;8.10;;;7.40;;
40533;SDS011;26233;51.894;10.192;2022-08-19T02:30:24;7.88;;;7.18;;
40533;SDS011;26233;51.894;10.192;2022-08-19T02:32:52;8.45;;;7.65;;
40533;SDS011;26233;51.894;10.192;2022-08-19T02:35:20;8.27;;;7.57;;
40533;SDS011;26233;51.894;10.192;2022-08-19T02:37:47;8.13;;;7.43;;
40533;SDS011;26233;51.894;10.192;2022-08-19T02:40:35;8.60;;;7.80;;
40533;SDS011;26233;51.894;10.192;2022-08-19T02:43:04;7.93;;;7.22;;
40533;SDS011;26233;51.894;10.192;2022-08-19T02:45:34;9.07;;;8.18;;
40533;SDS011;26233;51.894;10.192;2022-08-19T02:48:02;8.07;;;7.32;;
40533;SDS011;26233;51.894;10.192;2022-08-19T02:50:30;8.52;;;7.75;;
40533;SDS011;26233;51.894;10.192;2022-08-19T02:52:57;8.13;;;7.38;;
40533;SDS011;26233;51.894;10.192;2022-08-19T02:55:25;8.45;;;7.75;;
40533;SDS011;26233;51.894;10.192;2022-08-19T02:57:52;8.25;;;7.55;;
40533;SDS011;26233;51.894;10.192;2022-08-19T03:00:23;8.25;;;7.47;;
40533;SDS011;26233;51.894;10.192;2022-08-19T03:02:51;7.97;;;7.28;;
40533;SDS011;26233;51.894;10.192;2022-08-19T03:05:18;8.18;;;7.40;;
40533;SDS011;26233;51.894;10.192;2022-08-19T03:07:45;8.00;;;7.30;;
40533;SDS011;26233;51.894;10.192;2022-08-19T03:10:12;7.03;;;6.47;;
40533;SDS011;26233;51.894;10.192;2022-08-19T03:12:39;7.60;;;7.00;;
40533;SDS011;26233;51.894;10.192;2022-08-19T03:15:07;7.32;;;6.75;;
40533;SDS011;26233;51.894;10.192;2022-08-19T03:17:36;8.23;;;7.55;;
40533;SDS011;26233;51.894;10.192;2022-08-19T03:20:04;8.02;;;7.32;;
40533;SDS011;26233;51.894;10.192;2022-08-19T03:22:32;7.68;;;7.07;;
40533;SDS011;26233;51.894;10.192;2022-08-19T03:24:59;7.57;;;6.97;;
40533;SDS011;26233;51.894;10.192;2022-08-19T03:27:26;7.65;;;6.95;;
40533;SDS011;26233;51.894;10.192;2022-08-19T03:29:54;8.25;;;7.55;;
40533;SDS011;26233;51.894;10.192;2022-08-19T03:32:24;8.13;;;7.43;;
40533;SDS011;26233;51.894;10.192;2022-08-19T03:34:52;7.78;;;7.07;;
40533;SDS011;26233;51.894;10.192;2022-08-19T03:37:20;7.85;;;7.15;;
40533;SDS011;26233;51.894;10.192;2022-08-19T03:39:47;8.40;;;7.60;;
40533;SDS011;26233;51.894;10.192;2022-08-19T03:42:14;8.55;;;7.75;;
40533;SDS011;26233;51.894;10.192;2022-08-19T03:44:44;7.45;;;6.75;;
40533;SDS011;26233;51.894;10.192;2022-08-19T03:47:11;7.55;;;6.85;;
40533;SDS011;26233;51.894;10.192;2022-08-19T03:49:41;7.80;;;7.10;;
40533;SDS011;26233;51.894;10.192;2022-08-19T03:52:10;7.90;;;7.20;;
40533;SDS011;26233;51.894;10.192;2022-08-19T03:54:37;8.52;;;7.72;;
40533;SDS011;26233;51.894;10.192;2022-08-19T03:57:05;7.68;;;6.97;;
40533;SDS011;26233;51.894;10.192;2022-08-19T03:59:34;7.40;;;6.80;;
40533;SDS011;26233;51.894;10.192;2022-08-19T04:02:06;8.27;;;7.57;;
40533;SDS011;26233;51.894;10.192;2022-08-19T04:04:36;8.02;;;7.30;;
40533;SDS011;26233;51.894;10.192;2022-08-19T04:07:04;8.27;;;7.57;;
40533;SDS011;26233;51.894;10.192;2022-08-19T04:09:34;8.10;;;7.30;;
40533;SDS011;26233;51.894;10.192;2022-08-19T04:12:02;8.70;;;7.90;;
40533;SDS011;26233;51.894;10.192;2022-08-19T04:14:31;9.10;;;8.30;;
40533;SDS011;26233;51.894;10.192;2022-08-19T04:16:59;8.98;;;8.18;;
40533;SDS011;26233;51.894;10.192;2022-08-19T04:19:29;7.85;;;7.25;;
40533;SDS011;26233;51.894;10.192;2022-08-19T04:21:57;8.25;;;7.55;;
40533;SDS011;26233;51.894;10.192;2022-08-19T04:24:25;7.47;;;6.88;;
40533;SDS011;26233;51.894;10.192;2022-08-19T04:26:53;7.28;;;6.57;;
40533;SDS011;26233;51.894;10.192;2022-08-19T04:29:21;7.55;;;6.57;;
40533;SDS011;26233;51.894;10.192;2022-08-19T04:31:55;6.72;;;6.13;;
40533;SDS011;26233;51.894;10.192;2022-08-19T04:34:24;6.55;;;5.95;;
40533;SDS011;26233;51.894;10.192;2022-08-19T04:36:55;6.43;;;5.85;;
40533;SDS011;26233;51.894;10.192;2022-08-19T04:39:25;6.57;;;6.03;;
40533;SDS011;26233;51.894;10.192;2022-08-19T04:42:10;6.05;;;5.60;;
40533;SDS011;26233;51.894;10.192;2022-08-19T04:44:57;5.55;;;5.05;;
40533;SDS011;26233;51.894;10.192;2022-08-19T04:47:25;5.72;;;5.22;;
40533;SDS011;26233;51.894;10.192;2022-08-19T04:49:53;5.82;;;5.32;;
40533;SDS011;26233;51.894;10.192;2022-08-19T04:52:20;5.93;;;5.43;;
40533;SDS011;26233;51.894;10.192;2022-08-19T04:54:47;5.38;;;4.97;;
40533;SDS011;26233;51.894;10.192;2022-08-19T04:57:15;5.32;;;4.85;;
40533;SDS011;26233;51.894;10.192;2022-08-19T04:59:42;5.97;;;5.47;;
40533;SDS011;26233;51.894;10.192;2022-08-19T05:02:09;5.68;;;5.18;;
40533;SDS011;26233;51.894;10.192;2022-08-19T05:04:39;5.13;;;4.65;;
40533;SDS011;26233;51.894;10.192;2022-08-19T05:07:06;5.43;;;5.03;;
40533;SDS011;26233;51.894;10.192;2022-08-19T05:09:35;5.10;;;4.70;;
40533;SDS011;26233;51.894;10.192;2022-08-19T05:12:02;5.35;;;4.93;;
40533;SDS011;26233;51.894;10.192;2022-08-19T05:14:32;5.68;;;4.75;;
40533;SDS011;26233;51.894;10.192;2022-08-19T05:17:01;4.95;;;4.55;;
40533;SDS011;26233;51.894;10.192;2022-08-19T05:19:29;5.00;;;4.55;;
40533;SDS011;26233;51.894;10.192;2022-08-19T05:22:13;5.40;;;5.00;;
40533;SDS011;26233;51.894;10.192;2022-08-19T05:25:00;5.63;;;5.13;;
40533;SDS011;26233;51.894;10.192;2022-08-19T05:27:33;5.15;;;4.65;;
40533;SDS011;26233;51.894;10.192;2022-08-19T05:30:02;5.45;;;4.95;;
40533;SDS011;26233;51.894;10.192;2022-08-19T05:32:31;5.43;;;4.93;;
40533;SDS011;26233;51.894;10.192;2022-08-19T05:34:58;5.45;;;4.97;;
40533;SDS011;26233;51.894;10.192;2022-08-19T05:37:25;5.78;;;5.28;;
40533;SDS011;26233;51.894;10.192;2022-08-19T05:39:53;5.13;;;4.70;;
40533;SDS011;26233;51.894;10.192;2022-08-19T05:42:21;5.95;;;5.45;;
40533;SDS011;26233;51.894;10.192;2022-08-19T05:44:49;5.93;;;5.25;;
40533;SDS011;26233;51.894;10.192;2022-08-19T05:47:18;5.28;;;4.78;;
40533;SDS011;26233;51.894;10.192;2022-08-19T05:49:45;5.15;;;4.53;;
40533;SDS011;26233;51.894;10.192;2022-08-19T05:52:15;6.03;;;5.53;;
40533;SDS011;26233;51.894;10.192;2022-08-19T05:54:42;4.63;;;4.28;;
40533;SDS011;26233;51.894;10.192;2022-08-19T05:57:10;4.75;;;4.38;;
40533;SDS011;26233;51.894;10.192;2022-08-19T05:59:37;5.25;;;4.85;;
40533;SDS011;26233;51.894;10.192;2022-08-19T06:02:04;5.18;;;4.78;;
40533;SDS011;26233;51.894;10.192;2022-08-19T06:04:34;5.53;;;5.03;;
40533;SDS011;26233;51.894;10.192;2022-08-19T06:07:01;4.57;;;4.18;;
40533;SDS011;26233;51.894;10.192;2022-08-19T06:09:31;4.93;;;4.53;;
40533;SDS011;26233;51.894;10.192;2022-08-19T06:12:02;4.80;;;4.30;;
40533;SDS011;26233;51.894;10.192;2022-08-19T06:14:32;4.75;;;4.13;;
40533;SDS011;26233;51.894;10.192;2022-08-19T06:17:01;4.47;;;4.10;;
40533;SDS011;26233;51.894;10.192;2022-08-19T06:19:29;4.53;;;4.13;;
40533;SDS011;26233;51.894;10.192;2022-08-19T06:21:58;5.22;;;4.80;;
40533;SDS011;26233;51.894;10.192;2022-08-19T06:24:28;4.60;;;4.30;;
40533;SDS011;26233;51.894;10.192;2022-08-19T06:26:57;4.47;;;4.07;;
40533;SDS011;26233;51.894;10.192;2022-08-19T06:29:26;5.15;;;4.75;;
40533;SDS011;26233;51.894;10.192;2022-08-19T06:31:57;4.93;;;4.45;;
40533;SDS011;26233;51.894;10.192;2022-08-19T06:34:26;5.00;;;4.60;;
40533;SDS011;26233;51.894;10.192;2022-08-19T06:36:56;4.40;;;4.00;;
40533;SDS011;26233;51.894;10.192;2022-08-19T06:39:28;4.70;;;4.30;;
40533;SDS011;26233;51.894;10.192;2022-08-19T06:42:00;4.53;;;4.13;;
40533;SDS011;26233;51.894;10.192;2022-08-19T06:44:32;4.43;;;4.03;;
40533;SDS011;26233;51.894;10.192;2022-08-19T06:47:02;3.95;;;3.65;;
40533;SDS011;26233;51.894;10.192;2022-08-19T06:49:31;4.32;;;3.92;;
40533;SDS011;26233;51.894;10.192;2022-08-19T06:52:00;4.57;;;4.18;;
40533;SDS011;26233;51.894;10.192;2022-08-19T06:54:28;4.30;;;3.90;;
40533;SDS011;26233;51.894;10.192;2022-08-19T06:56:56;4.38;;;4.00;;
40533;SDS011;26233;51.894;10.192;2022-08-19T06:59:26;3.85;;;3.55;;
40533;SDS011;26233;51.894;10.192;2022-08-19T07:01:57;4.05;;;3.63;;
40533;SDS011;26233;51.894;10.192;2022-08-19T07:04:27;4.63;;;4.22;;
40533;SDS011;26233;51.894;10.192;2022-08-19T07:06:57;3.85;;;3.55;;
40533;SDS011;26233;51.894;10.192;2022-08-19T07:09:28;4.15;;;3.85;;
40533;SDS011;26233;51.894;10.192;2022-08-19T07:11:55;4.15;;;3.85;;
40533;SDS011;26233;51.894;10.192;2022-08-19T07:14:23;4.30;;;3.90;;
40533;SDS011;26233;51.894;10.192;2022-08-19T07:16:54;3.72;;;3.42;;
40533;SDS011;26233;51.894;10.192;2022-08-19T07:19:23;4.13;;;3.83;;
40533;SDS011;26233;51.894;10.192;2022-08-19T07:21:53;3.90;;;3.60;;
40533;SDS011;26233;51.894;10.192;2022-08-19T07:24:23;3.92;;;3.53;;
40533;SDS011;26233;51.894;10.192;2022-08-19T07:26:52;3.85;;;3.53;;
40533;SDS011;26233;51.894;10.192;2022-08-19T07:29:22;3.92;;;3.63;;
40533;SDS011;26233;51.894;10.192;2022-08-19T07:31:49;3.70;;;3.40;;
40533;SDS011;26233;51.894;10.192;2022-08-19T07:34:17;3.75;;;3.42;;
40533;SDS011;26233;51.894;10.192;2022-08-19T07:36:45;3.58;;;3.28;;
40533;SDS011;26233;51.894;10.192;2022-08-19T07:39:13;4.65;;;3.53;;
40533;SDS011;26233;51.894;10.192;2022-08-19T07:41:44;4.05;;;3.65;;
40533;SDS011;26233;51.894;10.192;2022-08-19T07:44:14;3.58;;;3.28;;
40533;SDS011;26233;51.894;10.192;2022-08-19T07:46:46;3.28;;;3.00;;
40533;SDS011;26233;51.894;10.192;2022-08-19T07:49:17;4.32;;;3.83;;
40533;SDS011;26233;51.894;10.192;2022-08-19T07:51:45;4.47;;;4.07;;
40533;SDS011;26233;51.894;10.192;2022-08-19T07:54:14;4.03;;;3.63;;
40533;SDS011;26233;51.894;10.192;2022-08-19T07:56:42;4.25;;;3.85;;
40533;SDS011;26233;51.894;10.192;2022-08-19T07:59:10;4.20;;;3.80;;
40533;SDS011;26233;51.894;10.192;2022-08-19T08:01:38;4.80;;;4.40;;
40533;SDS011;26233;51.894;10.192;2022-08-19T08:04:06;4.18;;;3.88;;
40533;SDS011;26233;51.894;10.192;2022-08-19T08:06:51;4.43;;;4.13;;
40533;SDS011;26233;51.894;10.192;2022-08-19T08:09:37;7.88;;;3.55;;
40533;SDS011;26233;51.894;10.192;2022-08-19T08:12:10;4.18;;;3.88;;
40533;SDS011;26233;51.894;10.192;2022-08-19T08:14:42;5.15;;;4.43;;
40533;SDS011;26233;51.894;10.192;2022-08-19T08:17:11;4.57;;;4.18;;
40533;SDS011;26233;51.894;10.192;2022-08-19T08:19:40;3.85;;;3.55;;
40533;SDS011;26233;51.894;10.192;2022-08-19T08:22:08;4.10;;;3.80;;
40533;SDS011;26233;51.894;10.192;2022-08-19T08:25:00;3.85;;;3.55;;
40533;SDS011;26233;51.894;10.192;2022-08-19T08:27:31;4.78;;;4.40;;
40533;SDS011;26233;51.894;10.192;2022-08-19T08:30:01;4.75;;;4.35;;
40533;SDS011;26233;51.894;10.192;2022-08-19T08:32:31;4.78;;;4.05;;
40533;SDS011;26233;51.894;10.192;2022-08-19T08:34:58;4.18;;;3.88;;
40533;SDS011;26233;51.894;10.192;2022-08-19T08:37:27;4.28;;;3.97;;
40533;SDS011;26233;51.894;10.192;2022-08-19T08:39:55;4.65;;;4.30;;
40533;SDS011;26233;51.894;10.192;2022-08-19T08:42:23;4.65;;;4.25;;
40533;SDS011;26233;51.894;10.192;2022-08-19T08:44:58;3.88;;;3.58;;
40533;SDS011;26233;51.894;10.192;2022-08-19T08:47:30;4.38;;;4.03;;
40533;SDS011;26233;51.894;10.192;2022-08-19T08:50:04;4.68;;;4.28;;
40533;SDS011;26233;51.894;10.192;2022-08-19T08:52:41;5.13;;;4.72;;
40533;SDS011;26233;51.894;10.192;2022-08-19T08:55:12;5.22;;;4.78;;
40533;SDS011;26233;51.894;10.192;2022-08-19T08:57:55;4.57;;;4.18;;
40533;SDS011;26233;51.894;10.192;2022-08-19T09:00:30;4.38;;;4.07;;
40533;SDS011;26233;51.894;10.192;2022-08-19T09:03:01;4.88;;;4.47;;
40533;SDS011;26233;51.894;10.192;2022-08-19T09:05:33;5.18;;;4.78;;
40533;SDS011;26233;51.894;10.192;2022-08-19T09:08:13;5.25;;;4.85;;
40533;SDS011;26233;51.894;10.192;2022-08-19T09:10:49;4.93;;;4.63;;
40533;SDS011;26233;51.894;10.192;2022-08-19T09:13:24;5.05;;;4.75;;
40533;SDS011;26233;51.894;10.192;2022-08-19T09:15:58;5.32;;;4.93;;
40533;SDS011;26233;51.894;10.192;2022-08-19T09:18:39;5.70;;;5.20;;
40533;SDS011;26233;51.894;10.192;2022-08-19T09:21:08;6.07;;;5.65;;
40533;SDS011;26233;51.894;10.192;2022-08-19T09:23:35;6.50;;;6.00;;
40533;SDS011;26233;51.894;10.192;2022-08-19T09:26:06;6.75;;;6.25;;
40533;SDS011;26233;51.894;10.192;2022-08-19T09:28:36;6.50;;;5.97;;
40533;SDS011;26233;51.894;10.192;2022-08-19T09:31:03;5.93;;;5.43;;
40533;SDS011;26233;51.894;10.192;2022-08-19T09:33:31;5.40;;;5.03;;
40533;SDS011;26233;51.894;10.192;2022-08-19T09:36:02;5.80;;;5.35;;
40533;SDS011;26233;51.894;10.192;2022-08-19T09:38:32;5.88;;;5.43;;
40533;SDS011;26233;51.894;10.192;2022-08-19T09:41:03;5.65;;;5.15;;
40533;SDS011;26233;51.894;10.192;2022-08-19T09:43:31;4.90;;;4.53;;
40533;SDS011;26233;51.894;10.192;2022-08-19T09:46:04;5.75;;;5.30;;
40533;SDS011;26233;51.894;10.192;2022-08-19T09:48:34;5.53;;;5.07;;
40533;SDS011;26233;51.894;10.192;2022-08-19T09:51:03;4.72;;;4.43;;
40533;SDS011;26233;51.894;10.192;2022-08-19T09:53:31;4.88;;;4.53;;
40533;SDS011;26233;51.894;10.192;2022-08-19T09:55:58;3.85;;;3.55;;
40533;SDS011;26233;51.894;10.192;2022-08-19T09:58:28;4.00;;;3.70;;
40533;SDS011;26233;51.894;10.192;2022-08-19T10:00:56;3.75;;;3.47;;
40533;SDS011;26233;51.894;10.192;2022-08-19T10:03:27;4.22;;;3.92;;
40533;SDS011;26233;51.894;10.192;2022-08-19T10:06:00;4.80;;;4.45;;
40533;SDS011;26233;51.894;10.192;2022-08-19T10:08:32;4.15;;;3.85;;
40533;SDS011;26233;51.894;10.192;2022-08-19T10:11:02;4.93;;;4.57;;
40533;SDS011;26233;51.894;10.192;2022-08-19T10:13:31;4.97;;;4.47;;
40533;SDS011;26233;51.894;10.192;2022-08-19T10:16:02;4.43;;;4.13;;
40533;SDS011;26233;51.894;10.192;2022-08-19T10:18:37;5.43;;;5.03;;
40533;SDS011;26233;51.894;10.192;2022-08-19T10:21:10;4.65;;;4.35;;
40533;SDS011;26233;51.894;10.192;2022-08-19T10:23:40;4.55;;;4.25;;
40533;SDS011;26233;51.894;10.192;2022-08-19T10:26:11;4.93;;;4.53;;
40533;SDS011;26233;51.894;10.192;2022-08-19T10:28:41;4.50;;;4.20;;
40533;SDS011;26233;51.894;10.192;2022-08-19T10:31:09;4.35;;;3.95;;
40533;SDS011;26233;51.894;10.192;2022-08-19T10:33:42;4.78;;;4.38;;
40533;SDS011;26233;51.894;10.192;2022-08-19T10:36:11;5.32;;;4.93;;
40533;SDS011;26233;51.894;10.192;2022-08-19T10:38:42;4.63;;;4.22;;
40533;SDS011;26233;51.894;10.192;2022-08-19T10:41:11;4.40;;;4.10;;
40533;SDS011;26233;51.894;10.192;2022-08-19T10:43:42;4.53;;;4.18;;
40533;SDS011;26233;51.894;10.192;2022-08-19T10:46:11;4.90;;;4.50;;
40533;SDS011;26233;51.894;10.192;2022-08-19T10:48:42;4.10;;;3.80;;
40533;SDS011;26233;51.894;10.192;2022-08-19T10:51:11;3.15;;;2.85;;
40533;SDS011;26233;51.894;10.192;2022-08-19T10:53:56;3.58;;;3.28;;
40533;SDS011;26233;51.894;10.192;2022-08-19T10:56:24;3.50;;;3.30;;
40533;SDS011;26233;51.894;10.192;2022-08-19T10:59:08;3.08;;;2.78;;
40533;SDS011;26233;51.894;10.192;2022-08-19T11:01:37;2.63;;;2.50;;
40533;SDS011;26233;51.894;10.192;2022-08-19T11:04:07;2.72;;;2.53;;
40533;SDS011;26233;51.894;10.192;2022-08-19T11:06:38;2.55;;;2.35;;
40533;SDS011;26233;51.894;10.192;2022-08-19T11:09:06;2.60;;;2.40;;
40533;SDS011;26233;51.894;10.192;2022-08-19T11:11:34;2.53;;;2.40;;
40533;SDS011;26233;51.894;10.192;2022-08-19T11:14:04;2.70;;;2.50;;
40533;SDS011;26233;51.894;10.192;2022-08-19T11:16:33;2.50;;;2.30;;
40533;SDS011;26233;51.894;10.192;2022-08-19T11:19:03;2.10;;;2.00;;
40533;SDS011;26233;51.894;10.192;2022-08-19T11:21:35;2.42;;;2.20;;
40533;SDS011;26233;51.894;10.192;2022-08-19T11:24:09;2.20;;;2.10;;
40533;SDS011;26233;51.894;10.192;2022-08-19T11:26:41;2.03;;;1.83;;
40533;SDS011;26233;51.894;10.192;2022-08-19T11:29:10;1.70;;;1.60;;
40533;SDS011;26233;51.894;10.192;2022-08-19T11:31:57;2.75;;;1.80;;
40533;SDS011;26233;51.894;10.192;2022-08-19T11:34:28;1.80;;;1.65;;
40533;SDS011;26233;51.894;10.192;2022-08-19T11:36:55;1.98;;;1.88;;
40533;SDS011;26233;51.894;10.192;2022-08-19T11:39:24;1.90;;;1.80;;
40533;SDS011;26233;51.894;10.192;2022-08-19T11:41:56;1.90;;;1.63;;
40533;SDS011;26233;51.894;10.192;2022-08-19T11:44:25;1.48;;;1.38;;
40533;SDS011;26233;51.894;10.192;2022-08-19T11:46:52;1.50;;;1.40;;
40533;SDS011;26233;51.894;10.192;2022-08-19T11:49:20;1.45;;;1.35;;
40533;SDS011;26233;51.894;10.192;2022-08-19T11:51:48;1.67;;;1.33;;
40533;SDS011;26233;51.894;10.192;2022-08-19T11:54:16;1.50;;;1.40;;
40533;SDS011;26233;51.894;10.192;2022-08-19T11:56:44;1.42;;;1.33;;
40533;SDS011;26233;51.894;10.192;2022-08-19T11:59:13;1.50;;;1.40;;
40533;SDS011;26233;51.894;10.192;2022-08-19T12:01:42;3.88;;;1.42;;
40533;SDS011;26233;51.894;10.192;2022-08-19T12:04:11;1.42;;;1.30;;
40533;SDS011;26233;51.894;10.192;2022-08-19T12:07:05;1.30;;;1.20;;
40533;SDS011;26233;51.894;10.192;2022-08-19T12:09:57;1.58;;;1.20;;
40533;SDS011;26233;51.894;10.192;2022-08-19T12:12:50;1.33;;;1.23;;
40533;SDS011;26233;51.894;10.192;2022-08-19T12:15:46;1.42;;;1.33;;
40533;SDS011;26233;51.894;10.192;2022-08-19T12:18:40;1.42;;;1.33;;
40533;SDS011;26233;51.894;10.192;2022-08-19T12:21:36;1.20;;;1.10;;
40533;SDS011;26233;51.894;10.192;2022-08-19T12:24:33;1.60;;;1.40;;
40533;SDS011;26233;51.894;10.192;2022-08-19T12:27:26;1.30;;;1.20;;
40533;SDS011;26233;51.894;10.192;2022-08-19T12:30:19;1.10;;;1.10;;
40533;SDS011;26233;51.894;10.192;2022-08-19T12:33:12;1.23;;;1.13;;
40533;SDS011;26233;51.894;10.192;2022-08-19T12:36:05;1.40;;;1.30;;
40533;SDS011;26233;51.894;10.192;2022-08-19T12:39:02;1.55;;;1.00;;
40533;SDS011;26233;51.894;10.192;2022-08-19T12:41:57;2.08;;;1.20;;
40533;SDS011;26233;51.894;10.192;2022-08-19T12:44:49;1.30;;;1.20;;
40533;SDS011;26233;51.894;10.192;2022-08-19T12:47:43;3.03;;;1.40;;
40533;SDS011;26233;51.894;10.192;2022-08-19T12:50:38;1.15;;;1.05;;
40533;SDS011;26233;51.894;10.192;2022-08-19T12:53:31;2.63;;;1.17;;
40533;SDS011;26233;51.894;10.192;2022-08-19T12:56:23;1.40;;;1.30;;
40533;SDS011;26233;51.894;10.192;2022-08-19T12:59:22;1.50;;;1.40;;
40533;SDS011;26233;51.894;10.192;2022-08-19T13:01:52;1.38;;;1.27;;
40533;SDS011;26233;51.894;10.192;2022-08-19T13:04:19;1.30;;;1.20;;
40533;SDS011;26233;51.894;10.192;2022-08-19T13:06:46;1.10;;;1.00;;
40533;SDS011;26233;51.894;10.192;2022-08-19T13:09:14;1.20;;;1.10;;
40533;SDS011;26233;51.894;10.192;2022-08-19T13:11:41;1.17;;;1.08;;
40533;SDS011;26233;51.894;10.192;2022-08-19T13:14:10;1.27;;;1.17;;
40533;SDS011;26233;51.894;10.192;2022-08-19T13:16:39;1.38;;;1.27;;
40533;SDS011;26233;51.894;10.192;2022-08-19T13:19:07;0.98;;;0.85;;
40533;SDS011;26233;51.894;10.192;2022-08-19T13:21:35;1.20;;;1.10;;
40533;SDS011;26233;51.894;10.192;2022-08-19T13:24:03;1.23;;;1.13;;
40533;SDS011;26233;51.894;10.192;2022-08-19T13:26:31;1.30;;;1.17;;
40533;SDS011;26233;51.894;10.192;2022-08-19T13:28:58;1.55;;;1.15;;
40533;SDS011;26233;51.894;10.192;2022-08-19T13:31:44;1.40;;;1.20;;
40533;SDS011;26233;51.894;10.192;2022-08-19T13:34:29;1.20;;;1.08;;
40533;SDS011;26233;51.894;10.192;2022-08-19T13:37:02;1.30;;;1.20;;
40533;SDS011;26233;51.894;10.192;2022-08-19T13:39:30;1.20;;;1.10;;
40533;SDS011;26233;51.894;10.192;2022-08-19T13:41:59;1.00;;;1.00;;
40533;SDS011;26233;51.894;10.192;2022-08-19T13:44:27;1.30;;;1.17;;
40533;SDS011;26233;51.894;10.192;2022-08-19T13:46:59;1.15;;;1.05;;
40533;SDS011;26233;51.894;10.192;2022-08-19T13:49:31;1.02;;;1.00;;
40533;SDS011;26233;51.894;10.192;2022-08-19T13:52:01;1.00;;;1.00;;
40533;SDS011;26233;51.894;10.192;2022-08-19T13:54:29;1.65;;;1.23;;
40533;SDS011;26233;51.894;10.192;2022-08-19T13:56:56;1.08;;;1.08;;
40533;SDS011;26233;51.894;10.192;2022-08-19T13:59:26;1.20;;;1.10;;
40533;SDS011;26233;51.894;10.192;2022-08-19T14:01:58;1.23;;;1.13;;
40533;SDS011;26233;51.894;10.192;2022-08-19T14:04:25;1.38;;;1.27;;
40533;SDS011;26233;51.894;10.192;2022-08-19T14:06:53;1.17;;;1.08;;
40533;SDS011;26233;51.894;10.192;2022-08-19T14:09:20;1.50;;;1.25;;
40533;SDS011;26233;51.894;10.192;2022-08-19T14:11:47;1.00;;;1.00;;
40533;SDS011;26233;51.894;10.192;2022-08-19T14:14:15;2.78;;;1.45;;
40533;SDS011;26233;51.894;10.192;2022-08-19T14:16:45;1.00;;;1.00;;
40533;SDS011;26233;51.894;10.192;2022-08-19T14:19:13;1.42;;;1.30;;
40533;SDS011;26233;51.894;10.192;2022-08-19T14:21:40;1.05;;;1.05;;
40533;SDS011;26233;51.894;10.192;2022-08-19T14:24:10;1.25;;;1.15;;
40533;SDS011;26233;51.894;10.192;2022-08-19T14:26:42;1.02;;;1.02;;
40533;SDS011;26233;51.894;10.192;2022-08-19T14:29:09;1.38;;;0.90;;
40533;SDS011;26233;51.894;10.192;2022-08-19T14:31:37;1.15;;;1.05;;
40533;SDS011;26233;51.894;10.192;2022-08-19T14:34:07;1.00;;;1.00;;
40533;SDS011;26233;51.894;10.192;2022-08-19T14:36:36;1.08;;;1.08;;
40533;SDS011;26233;51.894;10.192;2022-08-19T14:39:03;1.20;;;1.10;;
40533;SDS011;26233;51.894;10.192;2022-08-19T14:41:31;1.02;;;1.00;;
40533;SDS011;26233;51.894;10.192;2022-08-19T14:43:58;1.13;;;1.02;;
40533;SDS011;26233;51.894;10.192;2022-08-19T14:46:26;1.00;;;1.00;;
40533;SDS011;26233;51.894;10.192;2022-08-19T14:48:55;0.90;;;0.90;;
40533;SDS011;26233;51.894;10.192;2022-08-19T14:51:23;1.05;;;1.05;;
40533;SDS011;26233;51.894;10.192;2022-08-19T14:53:53;1.05;;;1.05;;
40533;SDS011;26233;51.894;10.192;2022-08-19T14:56:20;1.20;;;1.10;;